Time,TemperatureF,DewpointF,PressureIn,WindDirection,WindDirectionDegrees,WindSpeedMPH,WindSpeedGustMPH,Humidity,HourlyPrecipIn,Conditions,Clouds,dailyrainin,SoftwareType,DateUTC
2013-05-20 00:00:00,63.8,63.2,29.99,SW,227,0.0,3.0,98,0.00,,,0.00,Wunderground v.1.13,2013-05-20 04:00:00,
2013-05-20 00:10:00,63.6,63.0,29.99,SW,227,0.0,3.0,98,0.00,,,0.00,Wunderground v.1.13,2013-05-20 04:10:00,
2013-05-20 00:20:00,63.6,63.3,29.99,SW,227,0.0,3.0,99,0.00,,,0.00,Wunderground v.1.13,2013-05-20 04:20:00,
2013-05-20 00:30:00,63.6,63.3,29.98,SW,227,0.0,3.0,99,0.00,,,0.00,Wunderground v.1.13,2013-05-20 04:30:00,
2013-05-20 00:40:00,63.6,63.3,29.99,SW,227,0.0,3.0,99,0.00,,,0.00,Wunderground v.1.13,2013-05-20 04:40:00,
2013-05-20 00:50:00,63.6,63.6,29.99,SW,227,0.0,3.0,100,0.00,,,0.00,Wunderground v.1.13,2013-05-20 04:50:00,
2013-05-20 01:00:00,63.4,63.4,29.98,SW,227,0.0,3.0,100,0.00,,,0.00,Wunderground v.1.13,2013-05-20 05:00:00,
2013-05-20 01:10:00,63.3,63.3,29.99,SW,227,0.0,3.0,100,0.00,,,0.00,Wunderground v.1.13,2013-05-20 05:10:00,
2013-05-20 01:20:00,63.3,63.3,29.99,SW,227,0.0,3.0,100,0.00,,,0.00,Wunderground v.1.13,2013-05-20 05:20:00,
2013-05-20 01:30:00,63.3,63.3,30.00,SW,227,0.0,3.0,100,0.00,,,0.00,Wunderground v.1.13,2013-05-20 05:30:00,
2013-05-20 01:40:00,63.4,63.4,30.00,SW,227,0.0,3.0,100,0.00,,,0.00,Wunderground v.1.13,2013-05-20 05:40:00,
2013-05-20 01:50:00,63.6,63.6,30.00,SW,227,0.0,3.0,100,0.00,,,0.00,Wunderground v.1.13,2013-05-20 05:50:00,
2013-05-20 02:00:00,63.8,63.8,30.00,SW,227,0.0,3.0,100,0.00,,,0.00,Wunderground v.1.13,2013-05-20 06:00:00,
2013-05-20 02:10:00,64.1,64.1,30.00,SW,227,0.0,3.0,100,0.00,,,0.00,Wunderground v.1.13,2013-05-20 06:10:00,
2013-05-20 02:20:00,64.1,64.1,30.00,SW,227,0.0,3.0,100,0.00,,,0.00,Wunderground v.1.13,2013-05-20 06:20:00,
2013-05-20 02:30:00,63.9,63.9,30.00,SW,227,0.0,3.0,100,0.00,,,0.00,Wunderground v.1.13,2013-05-20 06:30:00,
2013-05-20 02:40:00,63.9,63.9,30.00,SW,227,0.0,3.0,100,0.00,,,0.00,Wunderground v.1.13,2013-05-20 06:40:00,
2013-05-20 02:50:00,63.8,63.8,30.00,SW,227,0.0,3.0,100,0.00,,,0.00,Wunderground v.1.13,2013-05-20 06:50:00,
2013-05-20 03:00:00,63.8,63.8,30.00,SW,227,0.0,3.0,100,0.00,,,0.00,Wunderground v.1.13,2013-05-20 07:00:00,
2013-05-20 03:10:00,63.8,63.8,30.01,SW,227,0.0,3.0,100,0.00,,,0.00,Wunderground v.1.13,2013-05-20 07:10:00,
2013-05-20 03:20:00,63.6,63.6,30.01,SW,227,0.0,3.0,100,0.00,,,0.00,Wunderground v.1.13,2013-05-20 07:20:00,
2013-05-20 03:30:00,63.6,63.6,30.01,SW,227,0.0,3.0,100,0.00,,,0.00,Wunderground v.1.13,2013-05-20 07:30:00,
2013-05-20 03:40:00,63.8,63.8,30.01,SW,227,0.0,3.0,100,0.00,,,0.00,Wunderground v.1.13,2013-05-20 07:40:00,
2013-05-20 03:50:00,63.8,63.8,30.01,SW,227,0.0,3.0,100,0.00,,,0.00,Wunderground v.1.13,2013-05-20 07:50:00,
2013-05-20 04:00:00,63.8,63.8,30.01,SW,227,0.0,3.0,100,0.00,,,0.00,Wunderground v.1.13,2013-05-20 08:00:00,
2013-05-20 04:10:00,63.8,63.8,30.01,SW,227,0.0,3.0,100,0.00,,,0.00,Wunderground v.1.13,2013-05-20 08:10:00,
2013-05-20 04:20:00,63.8,63.8,30.01,SW,227,0.0,3.0,100,0.00,,,0.00,Wunderground v.1.13,2013-05-20 08:20:00,
2013-05-20 04:30:00,63.8,63.8,30.01,SW,227,0.0,3.0,100,0.00,,,0.00,Wunderground v.1.13,2013-05-20 08:30:00,
2013-05-20 04:40:00,63.8,63.8,30.01,SW,227,0.0,3.0,100,0.00,,,0.00,Wunderground v.1.13,2013-05-20 08:40:00,
2013-05-20 04:50:00,63.8,63.8,30.01,SW,227,0.0,3.0,100,0.00,,,0.00,Wunderground v.1.13,2013-05-20 08:50:00,
2013-05-20 05:00:00,63.9,63.9,30.01,SW,227,0.0,3.0,100,0.00,,,0.00,Wunderground v.1.13,2013-05-20 09:00:00,
2013-05-20 05:10:00,63.9,63.9,30.02,SW,227,0.0,3.0,100,0.00,,,0.00,Wunderground v.1.13,2013-05-20 09:10:00,
2013-05-20 05:20:00,63.9,63.9,30.02,SW,227,0.0,3.0,100,0.00,,,0.00,Wunderground v.1.13,2013-05-20 09:20:00,
2013-05-20 05:30:00,63.9,63.9,30.02,SW,227,0.0,3.0,100,0.00,,,0.00,Wunderground v.1.13,2013-05-20 09:30:00,
2013-05-20 05:40:00,63.9,63.9,30.02,SW,227,0.0,3.0,100,0.00,,,0.00,Wunderground v.1.13,2013-05-20 09:40:00,
2013-05-20 05:50:00,63.9,63.9,30.02,SW,227,0.0,3.0,100,0.00,,,0.00,Wunderground v.1.13,2013-05-20 09:50:00,
2013-05-20 06:00:00,63.9,63.9,30.02,SW,227,0.0,3.0,100,0.00,,,0.00,Wunderground v.1.13,2013-05-20 10:00:00,
2013-05-20 06:10:00,63.8,63.8,30.01,SW,227,0.0,3.0,100,0.00,,,0.00,Wunderground v.1.13,2013-05-20 10:10:00,
2013-05-20 06:20:00,63.8,63.8,30.01,SW,227,0.0,3.0,100,0.00,,,0.00,Wunderground v.1.13,2013-05-20 10:20:00,
2013-05-20 06:30:00,63.8,63.8,30.02,SW,227,0.0,3.0,100,0.00,,,0.00,Wunderground v.1.13,2013-05-20 10:30:00,
2013-05-20 06:40:00,63.8,63.8,30.03,SW,227,0.0,3.0,100,0.00,,,0.00,Wunderground v.1.13,2013-05-20 10:40:00,
2013-05-20 06:50:00,63.8,63.8,30.03,SW,227,0.0,3.0,100,0.00,,,0.00,Wunderground v.1.13,2013-05-20 10:50:00,
2013-05-20 07:00:00,63.8,63.8,30.03,SW,227,0.0,3.0,100,0.00,,,0.00,Wunderground v.1.13,2013-05-20 11:00:00,
2013-05-20 07:10:00,63.9,63.9,30.04,SW,227,0.0,3.0,100,0.00,,,0.00,Wunderground v.1.13,2013-05-20 11:10:00,
2013-05-20 07:20:00,63.9,63.9,30.04,SW,227,0.0,3.0,100,0.00,,,0.00,Wunderground v.1.13,2013-05-20 11:20:00,
2013-05-20 07:30:00,64.1,64.1,30.04,SW,227,0.0,3.0,100,0.00,,,0.00,Wunderground v.1.13,2013-05-20 11:30:00,
2013-05-20 07:40:00,64.1,64.1,30.04,SW,227,0.0,3.0,100,0.00,,,0.00,Wunderground v.1.13,2013-05-20 11:40:00,
2013-05-20 07:50:00,63.9,63.9,30.04,SW,227,0.0,3.0,100,0.00,,,0.00,Wunderground v.1.13,2013-05-20 11:50:00,
2013-05-20 08:00:00,63.9,63.9,30.04,SW,227,0.0,3.0,100,0.00,,,0.00,Wunderground v.1.13,2013-05-20 12:00:00,
2013-05-20 08:10:00,63.9,63.9,30.05,SW,227,0.0,3.0,100,0.00,,,0.00,Wunderground v.1.13,2013-05-20 12:10:00,
2013-05-20 08:20:00,64.1,64.1,30.05,SW,227,0.0,3.0,100,0.00,,,0.00,Wunderground v.1.13,2013-05-20 12:20:00,
2013-05-20 08:30:00,64.1,64.1,30.06,SW,227,0.0,3.0,100,0.00,,,0.00,Wunderground v.1.13,2013-05-20 12:30:00,
2013-05-20 08:40:00,64.1,64.1,30.06,SW,227,0.0,3.0,100,0.00,,,0.00,Wunderground v.1.13,2013-05-20 12:40:00,
2013-05-20 08:50:00,64.2,64.2,30.06,SW,227,0.0,3.0,100,0.00,,,0.00,Wunderground v.1.13,2013-05-20 12:50:00,
2013-05-20 09:00:00,64.2,64.2,30.07,SW,227,0.0,3.0,100,0.00,,,0.00,Wunderground v.1.13,2013-05-20 13:00:00,
2013-05-20 09:10:00,64.4,64.4,30.08,SW,227,0.0,3.0,100,0.00,,,0.00,Wunderground v.1.13,2013-05-20 13:10:00,
2013-05-20 09:20:00,64.6,64.6,30.08,SW,227,0.0,3.0,100,0.00,,,0.00,Wunderground v.1.13,2013-05-20 13:20:00,
2013-05-20 09:30:00,64.7,64.7,30.08,SW,227,0.0,3.0,100,0.00,,,0.00,Wunderground v.1.13,2013-05-20 13:30:00,
2013-05-20 09:40:00,64.9,64.9,30.08,SW,227,0.0,3.0,100,0.00,,,0.00,Wunderground v.1.13,2013-05-20 13:40:00,
2013-05-20 09:50:00,64.9,64.9,30.08,SW,227,0.0,3.0,100,0.00,,,0.00,Wunderground v.1.13,2013-05-20 13:50:00,
2013-05-20 10:00:00,65.2,65.2,30.09,SW,227,0.0,3.0,100,0.00,,,0.00,Wunderground v.1.13,2013-05-20 14:00:00,
2013-05-20 10:10:00,65.1,65.1,30.09,SW,227,0.0,3.0,100,0.00,,,0.00,Wunderground v.1.13,2013-05-20 14:10:00,
2013-05-20 10:20:00,65.2,65.2,30.09,SW,224,0.0,3.0,100,0.00,,,0.00,Wunderground v.1.13,2013-05-20 14:20:00,
2013-05-20 10:30:00,65.5,65.5,30.09,SW,224,0.0,3.0,100,0.00,,,0.00,Wunderground v.1.13,2013-05-20 14:30:00,
2013-05-20 10:40:00,65.9,65.9,30.09,SW,224,0.0,3.0,100,0.00,,,0.00,Wunderground v.1.13,2013-05-20 14:40:00,
2013-05-20 10:50:00,66.0,65.4,30.09,SW,224,0.0,3.0,98,0.00,,,0.00,Wunderground v.1.13,2013-05-20 14:50:00,
2013-05-20 11:00:00,66.3,65.7,30.09,SW,224,0.0,3.0,98,0.00,,,0.00,Wunderground v.1.13,2013-05-20 15:00:00,
2013-05-20 11:10:00,66.5,65.3,30.09,SW,224,0.0,3.0,96,0.00,,,0.00,Wunderground v.1.13,2013-05-20 15:10:00,
2013-05-20 11:20:00,67.2,66.0,30.09,SW,224,0.0,3.0,96,0.00,,,0.00,Wunderground v.1.13,2013-05-20 15:20:00,
2013-05-20 11:30:00,68.0,66.8,30.09,SW,224,0.0,3.0,96,0.00,,,0.00,Wunderground v.1.13,2013-05-20 15:30:00,
2013-05-20 11:40:00,68.7,66.3,30.09,SW,224,0.0,3.0,92,0.00,,,0.00,Wunderground v.1.13,2013-05-20 15:40:00,
2013-05-20 11:50:00,69.8,65.4,30.09,SW,224,0.0,3.0,86,0.00,,,0.00,Wunderground v.1.13,2013-05-20 15:50:00,
2013-05-20 12:00:00,70.3,66.2,30.09,SW,224,0.0,3.0,87,0.00,,,0.00,Wunderground v.1.13,2013-05-20 16:00:00,
2013-05-20 12:10:00,71.2,66.1,30.08,SW,224,0.0,3.0,84,0.00,,,0.00,Wunderground v.1.13,2013-05-20 16:10:00,
2013-05-20 12:20:00,72.7,67.6,30.08,SW,224,0.0,3.0,84,0.00,,,0.00,Wunderground v.1.13,2013-05-20 16:20:00,
2013-05-20 12:30:00,74.3,65.5,30.07,SW,228,0.0,3.0,74,0.00,,,0.00,Wunderground v.1.13,2013-05-20 16:30:00,
2013-05-20 12:40:00,75.5,68.2,30.06,SW,228,0.0,3.0,78,0.00,,,0.00,Wunderground v.1.13,2013-05-20 16:40:00,
2013-05-20 12:50:00,76.0,66.3,30.06,SW,228,0.0,3.0,72,0.00,,,0.00,Wunderground v.1.13,2013-05-20 16:50:00,
2013-05-20 13:00:00,77.5,66.9,30.06,SW,228,0.0,3.0,70,0.00,,,0.00,Wunderground v.1.13,2013-05-20 17:00:00,
2013-05-20 13:10:00,78.2,65.0,30.05,SW,228,0.0,3.0,64,0.00,,,0.00,Wunderground v.1.13,2013-05-20 17:10:00,
2013-05-20 13:20:00,78.9,65.2,30.05,SW,228,0.0,3.0,63,0.00,,,0.00,Wunderground v.1.13,2013-05-20 17:20:00,
2013-05-20 13:30:00,79.1,65.9,30.05,SW,228,0.0,3.0,64,0.00,,,0.00,Wunderground v.1.13,2013-05-20 17:30:00,
2013-05-20 13:40:00,79.5,68.0,30.05,SW,217,0.0,3.0,68,0.00,,,0.00,Wunderground v.1.13,2013-05-20 17:40:00,
2013-05-20 13:50:00,80.4,67.1,30.05,SW,217,0.0,3.0,64,0.00,,,0.00,Wunderground v.1.13,2013-05-20 17:50:00,
2013-05-20 14:00:00,81.3,66.6,30.05,SW,217,0.0,3.0,61,0.00,,,0.00,Wunderground v.1.13,2013-05-20 18:00:00,
2013-05-20 14:10:00,82.3,66.5,30.03,SW,217,0.0,3.0,59,0.00,,,0.00,Wunderground v.1.13,2013-05-20 18:10:00,
2013-05-20 14:20:00,81.9,65.7,30.03,SW,217,0.0,3.0,58,0.00,,,0.00,Wunderground v.1.13,2013-05-20 18:20:00,
2013-05-20 14:30:00,81.7,67.4,30.03,WNW,291,0.0,3.0,62,0.00,,,0.00,Wunderground v.1.13,2013-05-20 18:30:00,
2013-05-20 14:40:00,82.1,66.8,30.03,WNW,291,0.0,3.0,60,0.00,,,0.00,Wunderground v.1.13,2013-05-20 18:40:00,
2013-05-20 14:50:00,82.9,67.6,30.03,WNW,291,0.0,3.0,60,0.00,,,0.00,Wunderground v.1.13,2013-05-20 18:50:00,
2013-05-20 15:00:00,83.3,67.5,30.02,WNW,290,0.0,3.0,59,0.00,,,0.00,Wunderground v.1.13,2013-05-20 19:00:00,
2013-05-20 15:10:00,82.7,67.4,30.02,West,281,0.0,3.0,60,0.00,,,0.00,Wunderground v.1.13,2013-05-20 19:10:00,
2013-05-20 15:20:00,83.1,69.7,30.02,West,281,0.0,3.0,64,0.00,,,0.00,Wunderground v.1.13,2013-05-20 19:20:00,
2013-05-20 15:30:00,82.5,64.7,30.01,West,281,0.0,3.0,55,0.00,,,0.00,Wunderground v.1.13,2013-05-20 19:30:00,
2013-05-20 15:40:00,83.1,67.3,30.01,West,281,0.0,3.0,59,0.00,,,0.00,Wunderground v.1.13,2013-05-20 19:40:00,
2013-05-20 15:50:00,82.9,65.6,30.01,West,281,0.0,3.0,56,0.00,,,0.00,Wunderground v.1.13,2013-05-20 19:50:00,
2013-05-20 16:00:00,82.9,66.1,30.00,West,281,0.0,3.0,57,0.00,,,0.00,Wunderground v.1.13,2013-05-20 20:00:00,
2013-05-20 16:10:00,83.9,66.5,29.99,West,281,0.0,3.0,56,0.00,,,0.00,Wunderground v.1.13,2013-05-20 20:10:00,
2013-05-20 16:20:00,84.2,66.3,29.99,West,281,0.0,3.0,55,0.00,,,0.00,Wunderground v.1.13,2013-05-20 20:20:00,
2013-05-20 16:30:00,83.9,66.0,29.99,West,281,0.0,3.0,55,0.00,,,0.00,Wunderground v.1.13,2013-05-20 20:30:00,
2013-05-20 16:40:00,83.9,68.0,29.98,West,270,0.0,3.0,59,0.00,,,0.00,Wunderground v.1.13,2013-05-20 20:40:00,
2013-05-20 16:50:00,83.5,66.7,29.98,West,271,0.0,3.0,57,0.00,,,0.00,Wunderground v.1.13,2013-05-20 20:50:00,
2013-05-20 17:00:00,83.5,67.2,29.99,West,273,0.0,3.0,58,0.00,,,0.00,Wunderground v.1.13,2013-05-20 21:00:00,
2013-05-20 17:10:00,83.3,67.0,29.98,West,273,0.0,3.0,58,0.00,,,0.00,Wunderground v.1.13,2013-05-20 21:10:00,
2013-05-20 17:20:00,82.9,67.1,29.98,West,273,0.0,3.0,59,0.00,,,0.00,Wunderground v.1.13,2013-05-20 21:20:00,
2013-05-20 17:30:00,82.9,66.6,29.98,West,273,0.0,3.0,58,0.00,,,0.00,Wunderground v.1.13,2013-05-20 21:30:00,
2013-05-20 17:40:00,82.9,65.6,29.97,West,273,0.0,3.0,56,0.00,,,0.00,Wunderground v.1.13,2013-05-20 21:40:00,
2013-05-20 17:50:00,83.7,65.3,29.97,West,273,0.0,3.0,54,0.00,,,0.00,Wunderground v.1.13,2013-05-20 21:50:00,
2013-05-20 18:00:00,83.9,66.0,29.97,West,273,0.0,3.0,55,0.00,,,0.00,Wunderground v.1.13,2013-05-20 22:00:00,
2013-05-20 18:10:00,83.1,66.3,29.97,West,273,0.0,3.0,57,0.00,,,0.00,Wunderground v.1.13,2013-05-20 22:10:00,
2013-05-20 18:20:00,82.1,66.8,29.97,West,273,0.0,3.0,60,0.00,,,0.00,Wunderground v.1.13,2013-05-20 22:20:00,
2013-05-20 18:30:00,81.7,66.0,29.96,West,273,0.0,3.0,59,0.00,,,0.00,Wunderground v.1.13,2013-05-20 22:30:00,
2013-05-20 18:40:00,81.3,67.0,29.96,West,273,0.0,3.0,62,0.00,,,0.00,Wunderground v.1.13,2013-05-20 22:40:00,
2013-05-20 18:50:00,80.8,67.5,29.96,West,273,0.0,3.0,64,0.00,,,0.00,Wunderground v.1.13,2013-05-20 22:50:00,
2013-05-20 19:00:00,80.0,67.6,29.95,West,273,0.0,3.0,66,0.00,,,0.00,Wunderground v.1.13,2013-05-20 23:00:00,
2013-05-20 19:10:00,79.3,67.4,29.95,West,273,0.0,3.0,67,0.00,,,0.00,Wunderground v.1.13,2013-05-20 23:10:00,
2013-05-20 19:20:00,78.7,66.8,29.95,West,273,0.0,3.0,67,0.00,,,0.00,Wunderground v.1.13,2013-05-20 23:20:00,
2013-05-20 19:30:00,78.2,66.3,29.95,West,273,0.0,3.0,67,0.00,,,0.00,Wunderground v.1.13,2013-05-20 23:30:00,
2013-05-20 19:40:00,77.6,66.6,29.95,West,273,0.0,0.0,69,0.00,,,0.00,Wunderground v.1.13,2013-05-20 23:40:00,
2013-05-20 19:50:00,76.9,66.0,29.95,West,273,0.0,0.0,69,0.00,,,0.00,Wunderground v.1.13,2013-05-20 23:50:00,
2013-05-20 20:00:00,76.4,65.9,29.95,West,273,0.0,0.0,70,0.00,,,0.00,Wunderground v.1.13,2013-05-21 00:00:00,
2013-05-20 20:10:00,75.7,66.0,29.95,West,273,0.0,0.0,72,0.00,,,0.00,Wunderground v.1.13,2013-05-21 00:10:00,
2013-05-20 20:20:00,75.2,65.9,29.95,West,273,0.0,0.0,73,0.00,,,0.00,Wunderground v.1.13,2013-05-21 00:20:00,
2013-05-20 20:30:00,74.5,65.7,29.95,West,273,0.0,0.0,74,0.00,,,0.00,Wunderground v.1.13,2013-05-21 00:30:00,
2013-05-20 20:40:00,73.9,65.9,29.95,West,273,0.0,0.0,76,0.00,,,0.00,Wunderground v.1.13,2013-05-21 00:40:00,
2013-05-20 20:50:00,73.6,65.6,29.95,West,273,0.0,0.0,76,0.00,,,0.00,Wunderground v.1.13,2013-05-21 00:50:00,
2013-05-20 21:00:00,73.1,66.2,29.95,West,273,0.0,0.0,79,0.00,,,0.00,Wunderground v.1.13,2013-05-21 01:00:00,
2013-05-20 21:10:00,72.7,66.5,29.95,West,273,0.0,0.0,81,0.00,,,0.00,Wunderground v.1.13,2013-05-21 01:10:00,
2013-05-20 21:20:00,72.4,66.2,29.95,West,273,0.0,0.0,81,0.00,,,0.00,Wunderground v.1.13,2013-05-21 01:20:00,
2013-05-20 21:30:00,72.0,66.2,29.96,West,273,0.0,0.0,82,0.00,,,0.00,Wunderground v.1.13,2013-05-21 01:30:00,
2013-05-20 21:40:00,71.5,65.7,29.95,West,273,0.0,0.0,82,0.00,,,0.00,Wunderground v.1.13,2013-05-21 01:40:00,
2013-05-20 21:50:00,71.0,65.6,29.95,West,273,0.0,0.0,83,0.00,,,0.00,Wunderground v.1.13,2013-05-21 01:50:00,
2013-05-20 22:00:00,70.5,65.8,29.96,West,273,0.0,0.0,85,0.00,,,0.00,Wunderground v.1.13,2013-05-21 02:00:00,
2013-05-20 22:10:00,70.0,65.3,29.96,West,273,0.0,0.0,85,0.00,,,0.00,Wunderground v.1.13,2013-05-21 02:10:00,
2013-05-20 22:20:00,69.7,65.3,29.96,West,273,0.0,0.0,86,0.00,,,0.00,Wunderground v.1.13,2013-05-21 02:20:00,
2013-05-20 22:30:00,69.2,65.2,29.96,West,273,0.0,0.0,87,0.00,,,0.00,Wunderground v.1.13,2013-05-21 02:30:00,
2013-05-20 22:40:00,68.8,64.8,29.97,West,273,0.0,0.0,87,0.00,,,0.00,Wunderground v.1.13,2013-05-21 02:40:00,
2013-05-20 22:50:00,68.5,65.4,29.97,West,273,0.0,0.0,90,0.00,,,0.00,Wunderground v.1.13,2013-05-21 02:50:00,
2013-05-20 23:00:00,68.3,65.6,29.97,West,273,0.0,0.0,91,0.00,,,0.00,Wunderground v.1.13,2013-05-21 03:00:00,
2013-05-20 23:10:00,68.3,65.9,29.97,West,273,0.0,0.0,92,0.00,,,0.00,Wunderground v.1.13,2013-05-21 03:10:00,
2013-05-20 23:20:00,68.2,66.1,29.97,West,273,0.0,0.0,93,0.00,,,0.00,Wunderground v.1.13,2013-05-21 03:20:00,
2013-05-20 23:30:00,68.2,66.4,29.98,West,273,0.0,0.0,94,0.00,,,0.00,Wunderground v.1.13,2013-05-21 03:30:00,
2013-05-20 23:40:00,68.0,66.2,29.97,West,273,0.0,0.0,94,0.00,,,0.00,Wunderground v.1.13,2013-05-21 03:40:00,
2013-05-20 23:50:00,67.8,66.3,29.97,West,273,0.0,0.0,95,0.00,,,0.00,Wunderground v.1.13,2013-05-21 03:50:00,